DAL503 KATL-KPDX
Flight info
| Callsign | DAL503 |
|---|---|
| Flight time | N/A |
| Altitude | 32000 |
| Route | PENCL2 JAACE YANUS WELTS KP63E KD72Y DDY DBS JOTBA HHOOD6 |
| Aircraft | B739/M-SDE2E3FGHIRWXY/LB1 |
Departure
| Time | 2026-05-07 16:29 |
|---|---|
| Airport | Hartsfield Jackson Atlanta International Airport (KATL) |
Arrival
| Time | N/A |
|---|---|
| Airport | Portland International Airport (KPDX) |
| Time | Latitude | Longitude | Altitude | Speed | Heading |
|---|---|---|---|---|---|
| 2026-05-07 16:06 | 33.64302 | -84.42873 | 1034 ft | 0 kts | 249° |
| 2026-05-07 16:20 | 33.64303 | -84.42871 | 1034 ft | 2 kts | 249° |
| 2026-05-07 16:20 | 33.64309 | -84.42841 | 1034 ft | 4 kts | 272° |
| 2026-05-07 16:20 | 33.64302 | -84.42815 | 1034 ft | 4 kts | 327° |
| 2026-05-07 16:21 | 33.64287 | -84.42809 | 1034 ft | 1 kts | 359° |
| 2026-05-07 16:21 | 33.64284 | -84.42809 | 1034 ft | 0 kts | 359° |
| 2026-05-07 16:23 | 33.64286 | -84.42809 | 1034 ft | 1 kts | 359° |
| 2026-05-07 16:24 | 33.64321 | -84.42809 | 1034 ft | 9 kts | 359° |
| 2026-05-07 16:24 | 33.64406 | -84.42810 | 1034 ft | 15 kts | 1° |
| 2026-05-07 16:24 | 33.64509 | -84.42768 | 1034 ft | 17 kts | 33° |
| 2026-05-07 16:24 | 33.64543 | -84.42639 | 1034 ft | 18 kts | 90° |
| 2026-05-07 16:25 | 33.64542 | -84.42482 | 1034 ft | 19 kts | 90° |
| 2026-05-07 16:25 | 33.64543 | -84.42316 | 1034 ft | 21 kts | 89° |
| 2026-05-07 16:25 | 33.64544 | -84.42198 | 1034 ft | 21 kts | 90° |
| 2026-05-07 16:25 | 33.64543 | -84.42029 | 1034 ft | 20 kts | 90° |
| 2026-05-07 16:26 | 33.64543 | -84.41861 | 1034 ft | 20 kts | 90° |
| 2026-05-07 16:26 | 33.64544 | -84.41696 | 1035 ft | 19 kts | 90° |
| 2026-05-07 16:26 | 33.64543 | -84.41536 | 1035 ft | 19 kts | 90° |
| 2026-05-07 16:26 | 33.64543 | -84.41371 | 1035 ft | 21 kts | 90° |
| 2026-05-07 16:27 | 33.64543 | -84.41190 | 1035 ft | 22 kts | 90° |
| 2026-05-07 16:27 | 33.64544 | -84.40999 | 1034 ft | 24 kts | 90° |
| 2026-05-07 16:27 | 33.64557 | -84.40796 | 1034 ft | 24 kts | 76° |
| 2026-05-07 16:27 | 33.64571 | -84.40623 | 1033 ft | 14 kts | 90° |
| 2026-05-07 16:28 | 33.64597 | -84.40584 | 1033 ft | 4 kts | 9° |
| 2026-05-07 16:28 | 33.64629 | -84.40578 | 1032 ft | 6 kts | 9° |
| 2026-05-07 16:28 | 33.64678 | -84.40586 | 1032 ft | 8 kts | 310° |
| 2026-05-07 16:28 | 33.64680 | -84.40658 | 1032 ft | 16 kts | 269° |
| 2026-05-07 16:29 | 33.64679 | -84.41077 | 1035 ft | 84 kts | 270° |
| 2026-05-07 16:29 | 33.64679 | -84.42030 | 1033 ft | 143 kts | 270° |
| 2026-05-07 16:29 | 33.64681 | -84.43410 | 1102 ft | 182 kts | 270° |
| 2026-05-07 16:29 | 33.64677 | -84.44942 | 1666 ft | 189 kts | 269° |
| 2026-05-07 16:30 | 33.64798 | -84.46550 | 2143 ft | 204 kts | 289° |
| 2026-05-07 16:30 | 33.65445 | -84.48155 | 2322 ft | 223 kts | 296° |
| 2026-05-07 16:30 | 33.66133 | -84.49895 | 2584 ft | 236 kts | 294° |
| 2026-05-07 16:30 | 33.66843 | -84.51740 | 2834 ft | 254 kts | 294° |
| 2026-05-07 16:31 | 33.67600 | -84.53720 | 3266 ft | 264 kts | 294° |
| 2026-05-07 16:31 | 33.68368 | -84.55709 | 4025 ft | 263 kts | 297° |
| 2026-05-07 16:31 | 33.69536 | -84.57378 | 4744 ft | 264 kts | 326° |
| 2026-05-07 16:31 | 33.71260 | -84.58163 | 5381 ft | 270 kts | 350° |
| 2026-05-07 16:32 | 33.73152 | -84.58273 | 5991 ft | 275 kts | 359° |
| 2026-05-07 16:32 | 33.75085 | -84.58212 | 6580 ft | 280 kts | 359° |
| 2026-05-07 16:32 | 33.77044 | -84.58152 | 7208 ft | 283 kts | 358° |
| 2026-05-07 16:32 | 33.79021 | -84.58109 | 7801 ft | 286 kts | 358° |
| 2026-05-07 16:33 | 33.81024 | -84.58077 | 8417 ft | 289 kts | 357° |
| 2026-05-07 16:33 | 33.83044 | -84.58079 | 9000 ft | 292 kts | 356° |
| 2026-05-07 16:33 | 33.85078 | -84.58164 | 9557 ft | 293 kts | 348° |
| 2026-05-07 16:33 | 33.87070 | -84.58668 | 10096 ft | 294 kts | 341° |
| 2026-05-07 16:34 | 33.89088 | -84.59343 | 10358 ft | 311 kts | 340° |
| 2026-05-07 16:34 | 33.91222 | -84.60094 | 10513 ft | 329 kts | 340° |
| 2026-05-07 16:34 | 33.93479 | -84.60883 | 10641 ft | 346 kts | 340° |
| 2026-05-07 16:34 | 33.95852 | -84.61688 | 10776 ft | 362 kts | 340° |
| 2026-05-07 16:35 | 33.98288 | -84.62496 | 11119 ft | 368 kts | 341° |
| 2026-05-07 16:35 | 34.00729 | -84.63287 | 11978 ft | 361 kts | 341° |
| 2026-05-07 16:35 | 34.03159 | -84.64073 | 12539 ft | 363 kts | 340° |
| 2026-05-07 16:35 | 34.05614 | -84.64869 | 13029 ft | 367 kts | 340° |
| 2026-05-07 16:36 | 34.08090 | -84.65671 | 13533 ft | 370 kts | 341° |
| 2026-05-07 16:36 | 34.10585 | -84.66479 | 14041 ft | 372 kts | 341° |
| 2026-05-07 16:36 | 34.13094 | -84.67291 | 14576 ft | 374 kts | 340° |
| 2026-05-07 16:36 | 34.15613 | -84.68110 | 15043 ft | 377 kts | 341° |
| 2026-05-07 16:37 | 34.18154 | -84.68936 | 15503 ft | 380 kts | 341° |
| 2026-05-07 16:37 | 34.20716 | -84.69766 | 15972 ft | 382 kts | 341° |
| 2026-05-07 16:37 | 34.23292 | -84.70601 | 16432 ft | 384 kts | 341° |
| 2026-05-07 16:37 | 34.25877 | -84.71447 | 16871 ft | 386 kts | 340° |
| 2026-05-07 16:38 | 34.28441 | -84.72425 | 17285 ft | 387 kts | 337° |
| 2026-05-07 16:38 | 34.30988 | -84.73501 | 17700 ft | 389 kts | 336° |
| 2026-05-07 16:38 | 34.33544 | -84.74615 | 18097 ft | 392 kts | 336° |
| 2026-05-07 16:38 | 34.36114 | -84.75738 | 18516 ft | 393 kts | 336° |
| 2026-05-07 16:39 | 34.38695 | -84.76857 | 18920 ft | 395 kts | 336° |
| 2026-05-07 16:39 | 34.41299 | -84.77976 | 19297 ft | 398 kts | 336° |
| 2026-05-07 16:39 | 34.43916 | -84.79094 | 19648 ft | 401 kts | 336° |
| 2026-05-07 16:39 | 34.46554 | -84.80217 | 20015 ft | 403 kts | 336° |
| 2026-05-07 16:40 | 34.49211 | -84.81345 | 20366 ft | 405 kts | 336° |
| 2026-05-07 16:40 | 34.51875 | -84.82477 | 20721 ft | 407 kts | 336° |
| 2026-05-07 16:40 | 34.54554 | -84.83615 | 21043 ft | 409 kts | 336° |
| 2026-05-07 16:40 | 34.57244 | -84.84759 | 21383 ft | 411 kts | 336° |
| 2026-05-07 16:41 | 34.59951 | -84.85909 | 21721 ft | 413 kts | 335° |
| 2026-05-07 16:41 | 34.62665 | -84.87064 | 22037 ft | 415 kts | 335° |
| 2026-05-07 16:41 | 34.65392 | -84.88225 | 22341 ft | 417 kts | 335° |
| 2026-05-07 16:41 | 34.68137 | -84.89395 | 22614 ft | 419 kts | 335° |
| 2026-05-07 16:42 | 34.70897 | -84.90573 | 22896 ft | 421 kts | 335° |
| 2026-05-07 16:42 | 34.73670 | -84.91757 | 23196 ft | 423 kts | 335° |
| 2026-05-07 16:42 | 34.76456 | -84.92947 | 23476 ft | 425 kts | 335° |
| 2026-05-07 16:42 | 34.79249 | -84.94140 | 23762 ft | 427 kts | 335° |
| 2026-05-07 16:43 | 34.82057 | -84.95340 | 24039 ft | 428 kts | 335° |
| 2026-05-07 16:43 | 34.84873 | -84.96545 | 24291 ft | 430 kts | 335° |
| 2026-05-07 16:43 | 34.87703 | -84.97756 | 24557 ft | 432 kts | 335° |
| 2026-05-07 16:43 | 34.90538 | -84.98970 | 24828 ft | 433 kts | 335° |
| 2026-05-07 16:44 | 34.93383 | -85.00192 | 25102 ft | 434 kts | 334° |
| 2026-05-07 16:44 | 34.96236 | -85.01418 | 25342 ft | 436 kts | 334° |
| 2026-05-07 16:44 | 34.99109 | -85.02653 | 25572 ft | 439 kts | 334° |
| 2026-05-07 16:44 | 35.01996 | -85.03894 | 25808 ft | 441 kts | 334° |
| 2026-05-07 16:45 | 35.04889 | -85.05138 | 26066 ft | 442 kts | 334° |
| 2026-05-07 16:45 | 35.07752 | -85.06370 | 26306 ft | 443 kts | 334° |
| 2026-05-07 16:45 | 35.10589 | -85.07789 | 26517 ft | 437 kts | 323° |
| 2026-05-07 16:45 | 35.12933 | -85.10045 | 26728 ft | 424 kts | 307° |
| 2026-05-07 16:46 | 35.14792 | -85.12805 | 27014 ft | 420 kts | 303° |
| 2026-05-07 16:46 | 35.16591 | -85.15628 | 27236 ft | 422 kts | 302° |
| 2026-05-07 16:46 | 35.18387 | -85.18471 | 27426 ft | 423 kts | 302° |
| 2026-05-07 16:46 | 35.20194 | -85.21320 | 27659 ft | 425 kts | 302° |
| 2026-05-07 16:47 | 35.22014 | -85.24171 | 27877 ft | 426 kts | 302° |
| 2026-05-07 16:47 | 35.23846 | -85.27023 | 28078 ft | 427 kts | 303° |
| 2026-05-07 16:47 | 35.25690 | -85.29881 | 28295 ft | 428 kts | 303° |
| 2026-05-07 16:47 | 35.27538 | -85.32742 | 28496 ft | 429 kts | 303° |
| 2026-05-07 16:48 | 35.29390 | -85.35611 | 28703 ft | 430 kts | 303° |
| 2026-05-07 16:48 | 35.31245 | -85.38487 | 28903 ft | 431 kts | 302° |
| 2026-05-07 16:48 | 35.33104 | -85.41372 | 29132 ft | 432 kts | 302° |
| 2026-05-07 16:48 | 35.34966 | -85.44262 | 29340 ft | 433 kts | 302° |
| 2026-05-07 16:49 | 35.36833 | -85.47162 | 29567 ft | 433 kts | 302° |
| 2026-05-07 16:49 | 35.38693 | -85.50054 | 29890 ft | 431 kts | 302° |
| 2026-05-07 16:49 | 35.40541 | -85.52928 | 30236 ft | 428 kts | 302° |
| 2026-05-07 16:49 | 35.42382 | -85.55794 | 30557 ft | 427 kts | 302° |
| 2026-05-07 16:50 | 35.44214 | -85.58651 | 30815 ft | 426 kts | 302° |
| 2026-05-07 16:50 | 35.46043 | -85.61505 | 31073 ft | 425 kts | 302° |
| 2026-05-07 16:50 | 35.47864 | -85.64353 | 31374 ft | 424 kts | 302° |
| 2026-05-07 16:50 | 35.49681 | -85.67195 | 31659 ft | 421 kts | 302° |
| 2026-05-07 16:51 | 35.51483 | -85.70013 | 31940 ft | 419 kts | 301° |
| 2026-05-07 16:51 | 35.53281 | -85.72828 | 32058 ft | 420 kts | 301° |
| 2026-05-07 16:51 | 35.55112 | -85.75635 | 32053 ft | 424 kts | 304° |
| 2026-05-07 16:52 | 35.59262 | -85.80874 | 32075 ft | 431 kts | 309° |
| 2026-05-07 16:52 | 35.63630 | -85.85973 | 32062 ft | 434 kts | 309° |
| 2026-05-07 16:53 | 35.67992 | -85.91131 | 32060 ft | 435 kts | 308° |
| 2026-05-07 16:53 | 35.72323 | -85.96344 | 32055 ft | 436 kts | 308° |
| 2026-05-07 16:54 | 35.76641 | -86.01584 | 32058 ft | 435 kts | 308° |
| 2026-05-07 16:54 | 35.80935 | -86.06815 | 32049 ft | 434 kts | 308° |
| 2026-05-07 16:55 | 35.85190 | -86.12002 | 32058 ft | 432 kts | 308° |
| 2026-05-07 16:55 | 35.89452 | -86.17209 | 32064 ft | 431 kts | 308° |
| 2026-05-07 16:56 | 35.93697 | -86.22404 | 32063 ft | 429 kts | 308° |
| 2026-05-07 16:56 | 36.00042 | -86.30178 | 32063 ft | 428 kts | 308° |
| 2026-05-07 16:57 | 36.04256 | -86.35358 | 32061 ft | 428 kts | 308° |
| 2026-05-07 16:57 | 36.08471 | -86.40542 | 32077 ft | 427 kts | 308° |
| 2026-05-07 16:58 | 36.12680 | -86.45729 | 32083 ft | 427 kts | 307° |
| 2026-05-07 16:58 | 36.16889 | -86.50923 | 32087 ft | 428 kts | 308° |
| 2026-05-07 16:59 | 36.21107 | -86.56138 | 32086 ft | 429 kts | 308° |
| 2026-05-07 16:59 | 36.25333 | -86.61368 | 32107 ft | 429 kts | 308° |
| 2026-05-07 17:00 | 36.29559 | -86.66609 | 32101 ft | 430 kts | 307° |
| 2026-05-07 17:00 | 36.33787 | -86.71859 | 32096 ft | 430 kts | 307° |
| 2026-05-07 17:01 | 36.38017 | -86.77118 | 32091 ft | 431 kts | 307° |
| 2026-05-07 17:01 | 36.42246 | -86.82389 | 32085 ft | 431 kts | 307° |
| 2026-05-07 17:02 | 36.46471 | -86.87666 | 32086 ft | 431 kts | 307° |
| 2026-05-07 17:02 | 36.50699 | -86.92948 | 32081 ft | 430 kts | 307° |
| 2026-05-07 17:03 | 36.54912 | -86.98224 | 32081 ft | 429 kts | 307° |
| 2026-05-07 17:03 | 36.59110 | -87.03488 | 32084 ft | 428 kts | 307° |
| 2026-05-07 17:04 | 36.63293 | -87.08743 | 32095 ft | 427 kts | 307° |
| 2026-05-07 17:04 | 36.67466 | -87.13997 | 32090 ft | 426 kts | 307° |
| 2026-05-07 17:05 | 36.71634 | -87.19252 | 32098 ft | 426 kts | 307° |
| 2026-05-07 17:05 | 36.75800 | -87.24513 | 32102 ft | 426 kts | 307° |
| 2026-05-07 17:06 | 36.79961 | -87.29776 | 32100 ft | 426 kts | 307° |
| 2026-05-07 17:06 | 36.84094 | -87.35013 | 32118 ft | 427 kts | 307° |
| 2026-05-07 17:07 | 36.88265 | -87.40302 | 32122 ft | 428 kts | 307° |
| 2026-05-07 17:07 | 36.92441 | -87.45611 | 32111 ft | 428 kts | 307° |
| 2026-05-07 17:08 | 36.96618 | -87.50930 | 32098 ft | 429 kts | 307° |
| 2026-05-07 17:08 | 37.00800 | -87.56261 | 32099 ft | 429 kts | 307° |
| 2026-05-07 17:09 | 37.04979 | -87.61601 | 32123 ft | 429 kts | 307° |
| 2026-05-07 17:09 | 37.09156 | -87.66945 | 32102 ft | 429 kts | 307° |
| 2026-05-07 17:10 | 37.13331 | -87.72295 | 32116 ft | 429 kts | 307° |
| 2026-05-07 17:10 | 37.17501 | -87.77649 | 32116 ft | 429 kts | 307° |
| 2026-05-07 17:11 | 37.21665 | -87.83002 | 32118 ft | 428 kts | 307° |
| 2026-05-07 17:11 | 37.24932 | -87.87614 | 32113 ft | 420 kts | 298° |
| 2026-05-07 17:12 | 37.27924 | -87.93833 | 32118 ft | 416 kts | 294° |
| 2026-05-07 17:12 | 37.30866 | -88.00091 | 32124 ft | 416 kts | 295° |
| 2026-05-07 17:13 | 37.33829 | -88.06351 | 32119 ft | 417 kts | 295° |
| 2026-05-07 17:13 | 37.36803 | -88.12615 | 32125 ft | 418 kts | 295° |
| 2026-05-07 17:14 | 37.39784 | -88.18897 | 32124 ft | 419 kts | 295° |
| 2026-05-07 17:14 | 37.42769 | -88.25199 | 32123 ft | 419 kts | 295° |
| 2026-05-07 17:15 | 37.45748 | -88.31500 | 32118 ft | 419 kts | 295° |
| 2026-05-07 17:15 | 37.48722 | -88.37809 | 32121 ft | 419 kts | 295° |
| 2026-05-07 17:16 | 37.51694 | -88.44119 | 32124 ft | 419 kts | 295° |
| 2026-05-07 17:16 | 37.54663 | -88.50431 | 32132 ft | 418 kts | 295° |
| 2026-05-07 17:17 | 37.57625 | -88.56746 | 32134 ft | 418 kts | 295° |
| 2026-05-07 17:17 | 37.60582 | -88.63060 | 32128 ft | 418 kts | 295° |
| 2026-05-07 17:18 | 37.63540 | -88.69389 | 32134 ft | 419 kts | 295° |
| 2026-05-07 17:18 | 37.66491 | -88.75719 | 32134 ft | 418 kts | 295° |
| 2026-05-07 17:19 | 37.69420 | -88.82015 | 32128 ft | 419 kts | 295° |
| 2026-05-07 17:19 | 37.72370 | -88.88362 | 32129 ft | 420 kts | 295° |
| 2026-05-07 17:20 | 37.75322 | -88.94726 | 32125 ft | 420 kts | 295° |
| 2026-05-07 17:20 | 37.78268 | -89.01101 | 32125 ft | 421 kts | 295° |
| 2026-05-07 17:21 | 37.81220 | -89.07494 | 32135 ft | 421 kts | 295° |
| 2026-05-07 17:21 | 37.84175 | -89.13898 | 32134 ft | 422 kts | 295° |
| 2026-05-07 17:22 | 37.87127 | -89.20317 | 32127 ft | 422 kts | 295° |
| 2026-05-07 17:22 | 37.90080 | -89.26750 | 32133 ft | 423 kts | 295° |
| 2026-05-07 17:23 | 37.93032 | -89.33198 | 32134 ft | 424 kts | 295° |
| 2026-05-07 17:23 | 37.95984 | -89.39654 | 32128 ft | 424 kts | 296° |
| 2026-05-07 17:24 | 37.98943 | -89.46126 | 32128 ft | 424 kts | 296° |
| 2026-05-07 17:24 | 38.01886 | -89.52591 | 32118 ft | 423 kts | 296° |
| 2026-05-07 17:25 | 38.04829 | -89.59062 | 32118 ft | 423 kts | 296° |
| 2026-05-07 17:25 | 38.07765 | -89.65548 | 32120 ft | 424 kts | 296° |
| 2026-05-07 17:26 | 38.10708 | -89.72046 | 32110 ft | 425 kts | 296° |
| 2026-05-07 17:26 | 38.13656 | -89.78563 | 32125 ft | 425 kts | 296° |
| 2026-05-07 17:27 | 38.16596 | -89.85085 | 32122 ft | 425 kts | 296° |
| 2026-05-07 17:27 | 38.19534 | -89.91621 | 32099 ft | 426 kts | 296° |
| 2026-05-07 17:28 | 38.22470 | -89.98167 | 32118 ft | 426 kts | 296° |
| 2026-05-07 17:28 | 38.25408 | -90.04713 | 32108 ft | 427 kts | 296° |
| 2026-05-07 17:29 | 38.28346 | -90.11280 | 32113 ft | 426 kts | 296° |
| 2026-05-07 17:29 | 38.31273 | -90.17842 | 32100 ft | 426 kts | 296° |
| 2026-05-07 17:30 | 38.34198 | -90.24400 | 32096 ft | 425 kts | 296° |
| 2026-05-07 17:30 | 38.37109 | -90.30952 | 32102 ft | 425 kts | 296° |
| 2026-05-07 17:31 | 38.40012 | -90.37503 | 32113 ft | 424 kts | 296° |
| 2026-05-07 17:31 | 38.42916 | -90.44063 | 32119 ft | 425 kts | 296° |
| 2026-05-07 17:32 | 38.45820 | -90.50637 | 32097 ft | 425 kts | 296° |
| 2026-05-07 17:32 | 38.48717 | -90.57208 | 32098 ft | 425 kts | 296° |
| 2026-05-07 17:33 | 38.51607 | -90.63774 | 32098 ft | 424 kts | 296° |
| 2026-05-07 17:33 | 38.54472 | -90.70306 | 32091 ft | 425 kts | 296° |
| 2026-05-07 17:34 | 38.57359 | -90.76894 | 32092 ft | 425 kts | 296° |
| 2026-05-07 17:34 | 38.60240 | -90.83480 | 32091 ft | 425 kts | 296° |
| 2026-05-07 17:35 | 38.63114 | -90.90073 | 32090 ft | 424 kts | 296° |
| 2026-05-07 17:35 | 38.65986 | -90.96671 | 32094 ft | 424 kts | 296° |
| 2026-05-07 17:36 | 38.68852 | -91.03266 | 32093 ft | 424 kts | 296° |
| 2026-05-07 17:36 | 38.71716 | -91.09874 | 32092 ft | 425 kts | 296° |
| 2026-05-07 17:37 | 38.74580 | -91.16499 | 32089 ft | 425 kts | 296° |
| 2026-05-07 17:37 | 38.77440 | -91.23122 | 32092 ft | 425 kts | 296° |
| 2026-05-07 17:38 | 38.80294 | -91.29745 | 32092 ft | 424 kts | 296° |
| 2026-05-07 17:38 | 38.83143 | -91.36373 | 32095 ft | 424 kts | 296° |
| 2026-05-07 17:39 | 38.85987 | -91.43004 | 32091 ft | 424 kts | 296° |